ロゾー の空港の天気 - METARとTAF

ケインフィールド空港 ( TDCF / DCF ) - ドミニカ国 ロゾー
飛行場実況気象(Metar)
観測時間07/16 13:00 AST (07/16 17:00 UTC)
風向・風速西北西 1m/s
視程10km以上
天気現象
全天の4割程度の雲 雲底高度 550m
気温30℃
湿度75%
気圧1013hPa
METARTDCF 161700Z 30002KT 9999 SCT018 30/25 Q1013
過去の天気等 Google飛行場航空写真 Wunderground天気予報

過去48時間のMETAR

飛行場予報(TAF)
データがありません